sensor_id;sensor_type;location;lat;lon;timestamp;P1;durP1;ratioP1;P2;durP2;ratioP2
75246;SDS011;63844;50.042;19.224;2023-01-19T00:00:26;72.00;;;30.60;;
75246;SDS011;63844;50.042;19.224;2023-01-19T00:03:13;81.20;;;32.40;;
75246;SDS011;63844;50.042;19.224;2023-01-19T00:05:43;75.70;;;30.80;;
75246;SDS011;63844;50.042;19.224;2023-01-19T00:08:10;75.70;;;31.50;;
75246;SDS011;63844;50.042;19.224;2023-01-19T00:10:44;79.00;;;31.60;;
75246;SDS011;63844;50.042;19.224;2023-01-19T00:13:13;61.70;;;25.80;;
75246;SDS011;63844;50.042;19.224;2023-01-19T00:15:40;75.80;;;31.20;;
75246;SDS011;63844;50.042;19.224;2023-01-19T00:18:07;83.80;;;34.50;;
75246;SDS011;63844;50.042;19.224;2023-01-19T00:20:33;98.80;;;38.90;;
75246;SDS011;63844;50.042;19.224;2023-01-19T00:23:03;93.60;;;37.60;;
75246;SDS011;63844;50.042;19.224;2023-01-19T00:25:30;86.50;;;36.10;;
75246;SDS011;63844;50.042;19.224;2023-01-19T00:27:56;87.40;;;34.30;;
75246;SDS011;63844;50.042;19.224;2023-01-19T00:30:23;76.90;;;32.20;;
75246;SDS011;63844;50.042;19.224;2023-01-19T00:32:50;73.90;;;32.40;;
75246;SDS011;63844;50.042;19.224;2023-01-19T00:35:16;77.90;;;33.00;;
75246;SDS011;63844;50.042;19.224;2023-01-19T00:37:43;80.30;;;36.50;;
75246;SDS011;63844;50.042;19.224;2023-01-19T00:40:12;82.30;;;33.20;;
75246;SDS011;63844;50.042;19.224;2023-01-19T00:42:39;73.60;;;34.20;;
75246;SDS011;63844;50.042;19.224;2023-01-19T00:45:07;74.00;;;31.90;;
75246;SDS011;63844;50.042;19.224;2023-01-19T00:47:34;71.70;;;31.90;;
75246;SDS011;63844;50.042;19.224;2023-01-19T00:50:01;67.10;;;30.70;;
75246;SDS011;63844;50.042;19.224;2023-01-19T00:52:28;66.50;;;29.20;;
75246;SDS011;63844;50.042;19.224;2023-01-19T00:54:55;58.50;;;28.50;;
75246;SDS011;63844;50.042;19.224;2023-01-19T00:57:21;64.10;;;29.00;;
75246;SDS011;63844;50.042;19.224;2023-01-19T00:59:48;60.10;;;26.80;;
75246;SDS011;63844;50.042;19.224;2023-01-19T01:02:15;50.80;;;23.80;;
75246;SDS011;63844;50.042;19.224;2023-01-19T01:04:42;63.80;;;27.70;;
75246;SDS011;63844;50.042;19.224;2023-01-19T01:07:08;65.10;;;26.60;;
75246;SDS011;63844;50.042;19.224;2023-01-19T01:09:35;62.30;;;26.80;;
75246;SDS011;63844;50.042;19.224;2023-01-19T01:12:01;63.40;;;26.80;;
75246;SDS011;63844;50.042;19.224;2023-01-19T01:14:28;63.30;;;29.00;;
75246;SDS011;63844;50.042;19.224;2023-01-19T01:16:55;58.20;;;26.70;;
75246;SDS011;63844;50.042;19.224;2023-01-19T01:19:21;46.90;;;24.00;;
75246;SDS011;63844;50.042;19.224;2023-01-19T01:21:47;53.20;;;25.20;;
75246;SDS011;63844;50.042;19.224;2023-01-19T01:24:14;54.30;;;24.40;;
75246;SDS011;63844;50.042;19.224;2023-01-19T01:26:41;55.20;;;23.60;;
75246;SDS011;63844;50.042;19.224;2023-01-19T01:29:07;51.40;;;24.00;;
75246;SDS011;63844;50.042;19.224;2023-01-19T01:31:34;50.60;;;23.10;;
75246;SDS011;63844;50.042;19.224;2023-01-19T01:34:00;43.90;;;20.40;;
75246;SDS011;63844;50.042;19.224;2023-01-19T01:36:27;45.00;;;19.10;;
75246;SDS011;63844;50.042;19.224;2023-01-19T01:38:57;46.90;;;20.90;;
75246;SDS011;63844;50.042;19.224;2023-01-19T01:41:23;39.60;;;17.60;;
75246;SDS011;63844;50.042;19.224;2023-01-19T01:43:53;37.70;;;16.40;;
75246;SDS011;63844;50.042;19.224;2023-01-19T01:46:23;37.90;;;17.60;;
75246;SDS011;63844;50.042;19.224;2023-01-19T01:51:41;42.30;;;20.00;;
75246;SDS011;63844;50.042;19.224;2023-01-19T01:56:49;34.20;;;16.40;;
75246;SDS011;63844;50.042;19.224;2023-01-19T02:01:51;35.60;;;16.40;;
75246;SDS011;63844;50.042;19.224;2023-01-19T02:04:42;35.70;;;16.00;;
75246;SDS011;63844;50.042;19.224;2023-01-19T02:07:32;38.30;;;17.50;;
75246;SDS011;63844;50.042;19.224;2023-01-19T02:10:23;33.70;;;16.20;;
75246;SDS011;63844;50.042;19.224;2023-01-19T02:13:08;32.00;;;15.10;;
75246;SDS011;63844;50.042;19.224;2023-01-19T02:15:48;33.70;;;15.20;;
75246;SDS011;63844;50.042;19.224;2023-01-19T02:18:17;31.90;;;13.50;;
75246;SDS011;63844;50.042;19.224;2023-01-19T02:21:20;30.60;;;15.70;;
75246;SDS011;63844;50.042;19.224;2023-01-19T02:23:58;33.90;;;15.80;;
75246;SDS011;63844;50.042;19.224;2023-01-19T02:26:35;35.90;;;16.90;;
75246;SDS011;63844;50.042;19.224;2023-01-19T02:29:09;33.50;;;15.70;;
75246;SDS011;63844;50.042;19.224;2023-01-19T02:31:38;35.70;;;17.50;;
75246;SDS011;63844;50.042;19.224;2023-01-19T02:36:41;37.90;;;17.10;;
75246;SDS011;63844;50.042;19.224;2023-01-19T02:39:24;36.80;;;18.60;;
75246;SDS011;63844;50.042;19.224;2023-01-19T02:41:54;39.30;;;18.20;;
75246;SDS011;63844;50.042;19.224;2023-01-19T02:44:26;41.10;;;19.00;;
75246;SDS011;63844;50.042;19.224;2023-01-19T02:46:55;37.30;;;17.80;;
75246;SDS011;63844;50.042;19.224;2023-01-19T02:49:22;34.30;;;16.50;;
75246;SDS011;63844;50.042;19.224;2023-01-19T02:51:53;33.80;;;15.90;;
75246;SDS011;63844;50.042;19.224;2023-01-19T02:54:35;35.60;;;16.80;;
75246;SDS011;63844;50.042;19.224;2023-01-19T02:57:23;37.60;;;17.40;;
75246;SDS011;63844;50.042;19.224;2023-01-19T03:00:02;36.50;;;17.10;;
75246;SDS011;63844;50.042;19.224;2023-01-19T03:02:43;38.70;;;17.50;;
75246;SDS011;63844;50.042;19.224;2023-01-19T03:08:32;38.80;;;16.70;;
75246;SDS011;63844;50.042;19.224;2023-01-19T03:11:09;36.10;;;17.00;;
75246;SDS011;63844;50.042;19.224;2023-01-19T03:13:54;35.90;;;16.40;;
75246;SDS011;63844;50.042;19.224;2023-01-19T03:16:43;33.80;;;15.80;;
75246;SDS011;63844;50.042;19.224;2023-01-19T03:19:17;33.70;;;15.50;;
75246;SDS011;63844;50.042;19.224;2023-01-19T03:21:51;34.90;;;14.20;;
75246;SDS011;63844;50.042;19.224;2023-01-19T03:24:23;31.80;;;14.20;;
75246;SDS011;63844;50.042;19.224;2023-01-19T03:26:53;30.90;;;14.70;;
75246;SDS011;63844;50.042;19.224;2023-01-19T03:29:26;32.00;;;14.20;;
75246;SDS011;63844;50.042;19.224;2023-01-19T03:31:55;31.40;;;14.80;;
75246;SDS011;63844;50.042;19.224;2023-01-19T03:34:26;26.10;;;10.90;;
75246;SDS011;63844;50.042;19.224;2023-01-19T03:36:56;25.00;;;11.10;;
75246;SDS011;63844;50.042;19.224;2023-01-19T03:39:27;29.30;;;12.00;;
75246;SDS011;63844;50.042;19.224;2023-01-19T03:41:56;26.20;;;12.30;;
75246;SDS011;63844;50.042;19.224;2023-01-19T03:44:26;30.20;;;13.40;;
75246;SDS011;63844;50.042;19.224;2023-01-19T03:46:56;32.20;;;14.90;;
75246;SDS011;63844;50.042;19.224;2023-01-19T03:49:24;29.60;;;14.10;;
75246;SDS011;63844;50.042;19.224;2023-01-19T03:51:54;37.00;;;15.00;;
75246;SDS011;63844;50.042;19.224;2023-01-19T03:54:22;34.10;;;12.70;;
75246;SDS011;63844;50.042;19.224;2023-01-19T03:56:48;31.90;;;15.10;;
75246;SDS011;63844;50.042;19.224;2023-01-19T03:59:15;34.00;;;15.70;;
75246;SDS011;63844;50.042;19.224;2023-01-19T04:01:42;30.30;;;14.00;;
75246;SDS011;63844;50.042;19.224;2023-01-19T04:04:09;35.60;;;15.20;;
75246;SDS011;63844;50.042;19.224;2023-01-19T04:06:35;34.50;;;14.20;;
75246;SDS011;63844;50.042;19.224;2023-01-19T04:09:02;35.00;;;16.20;;
75246;SDS011;63844;50.042;19.224;2023-01-19T04:11:28;36.20;;;16.10;;
75246;SDS011;63844;50.042;19.224;2023-01-19T04:13:55;37.10;;;17.40;;
75246;SDS011;63844;50.042;19.224;2023-01-19T04:16:21;40.10;;;17.50;;
75246;SDS011;63844;50.042;19.224;2023-01-19T04:21:15;31.40;;;14.40;;
75246;SDS011;63844;50.042;19.224;2023-01-19T04:23:41;37.30;;;16.10;;
75246;SDS011;63844;50.042;19.224;2023-01-19T04:26:09;37.90;;;15.40;;
75246;SDS011;63844;50.042;19.224;2023-01-19T04:28:36;42.60;;;17.00;;
75246;SDS011;63844;50.042;19.224;2023-01-19T04:31:03;35.30;;;16.40;;
75246;SDS011;63844;50.042;19.224;2023-01-19T04:33:30;37.10;;;17.60;;
75246;SDS011;63844;50.042;19.224;2023-01-19T04:35:58;38.70;;;17.40;;
75246;SDS011;63844;50.042;19.224;2023-01-19T04:38:24;45.20;;;18.90;;
75246;SDS011;63844;50.042;19.224;2023-01-19T04:40:52;38.60;;;17.00;;
75246;SDS011;63844;50.042;19.224;2023-01-19T04:43:20;46.90;;;20.50;;
75246;SDS011;63844;50.042;19.224;2023-01-19T04:45:47;46.10;;;19.20;;
75246;SDS011;63844;50.042;19.224;2023-01-19T04:50:41;47.00;;;19.40;;
75246;SDS011;63844;50.042;19.224;2023-01-19T04:53:08;43.70;;;18.30;;
75246;SDS011;63844;50.042;19.224;2023-01-19T04:55:35;45.50;;;20.20;;
75246;SDS011;63844;50.042;19.224;2023-01-19T04:58:04;45.80;;;19.30;;
75246;SDS011;63844;50.042;19.224;2023-01-19T05:00:30;43.10;;;19.80;;
75246;SDS011;63844;50.042;19.224;2023-01-19T05:02:57;45.70;;;20.10;;
75246;SDS011;63844;50.042;19.224;2023-01-19T05:05:23;41.20;;;18.50;;
75246;SDS011;63844;50.042;19.224;2023-01-19T05:07:50;42.20;;;19.70;;
75246;SDS011;63844;50.042;19.224;2023-01-19T05:10:16;39.40;;;17.80;;
75246;SDS011;63844;50.042;19.224;2023-01-19T05:12:43;42.50;;;20.30;;
75246;SDS011;63844;50.042;19.224;2023-01-19T05:15:09;39.70;;;18.90;;
75246;SDS011;63844;50.042;19.224;2023-01-19T05:17:36;48.30;;;20.30;;
75246;SDS011;63844;50.042;19.224;2023-01-19T05:20:03;38.90;;;16.80;;
75246;SDS011;63844;50.042;19.224;2023-01-19T05:22:30;43.60;;;19.10;;
75246;SDS011;63844;50.042;19.224;2023-01-19T05:24:57;43.80;;;19.80;;
75246;SDS011;63844;50.042;19.224;2023-01-19T05:27:23;45.40;;;21.50;;
75246;SDS011;63844;50.042;19.224;2023-01-19T05:29:50;49.20;;;20.80;;
75246;SDS011;63844;50.042;19.224;2023-01-19T05:32:17;43.60;;;20.10;;
75246;SDS011;63844;50.042;19.224;2023-01-19T05:34:43;51.40;;;21.70;;
75246;SDS011;63844;50.042;19.224;2023-01-19T05:37:10;49.30;;;23.80;;
75246;SDS011;63844;50.042;19.224;2023-01-19T05:39:36;53.40;;;22.70;;
75246;SDS011;63844;50.042;19.224;2023-01-19T05:42:03;52.40;;;21.90;;
75246;SDS011;63844;50.042;19.224;2023-01-19T05:44:29;52.90;;;23.10;;
75246;SDS011;63844;50.042;19.224;2023-01-19T05:46:56;48.90;;;22.40;;
75246;SDS011;63844;50.042;19.224;2023-01-19T05:49:22;50.60;;;21.70;;
75246;SDS011;63844;50.042;19.224;2023-01-19T05:51:49;52.90;;;23.70;;
75246;SDS011;63844;50.042;19.224;2023-01-19T05:54:15;45.90;;;22.10;;
75246;SDS011;63844;50.042;19.224;2023-01-19T05:56:42;49.10;;;23.50;;
75246;SDS011;63844;50.042;19.224;2023-01-19T05:59:09;49.60;;;22.50;;
75246;SDS011;63844;50.042;19.224;2023-01-19T06:01:35;54.50;;;24.20;;
75246;SDS011;63844;50.042;19.224;2023-01-19T06:04:03;72.40;;;31.20;;
75246;SDS011;63844;50.042;19.224;2023-01-19T06:08:57;53.70;;;24.20;;
75246;SDS011;63844;50.042;19.224;2023-01-19T06:11:23;59.10;;;25.40;;
75246;SDS011;63844;50.042;19.224;2023-01-19T06:13:51;56.00;;;26.30;;
75246;SDS011;63844;50.042;19.224;2023-01-19T06:16:18;56.00;;;27.00;;
75246;SDS011;63844;50.042;19.224;2023-01-19T06:18:45;58.60;;;27.60;;
75246;SDS011;63844;50.042;19.224;2023-01-19T06:21:11;58.90;;;26.50;;
75246;SDS011;63844;50.042;19.224;2023-01-19T06:23:39;57.30;;;26.60;;
75246;SDS011;63844;50.042;19.224;2023-01-19T06:26:06;52.10;;;24.40;;
75246;SDS011;63844;50.042;19.224;2023-01-19T06:28:33;51.90;;;24.70;;
75246;SDS011;63844;50.042;19.224;2023-01-19T06:30:59;50.40;;;23.70;;
75246;SDS011;63844;50.042;19.224;2023-01-19T06:33:27;52.40;;;23.40;;
75246;SDS011;63844;50.042;19.224;2023-01-19T06:35:54;35.00;;;17.20;;
75246;SDS011;63844;50.042;19.224;2023-01-19T06:38:21;51.60;;;23.70;;
75246;SDS011;63844;50.042;19.224;2023-01-19T06:40:51;62.30;;;29.00;;
75246;SDS011;63844;50.042;19.224;2023-01-19T06:43:27;62.00;;;29.20;;
75246;SDS011;63844;50.042;19.224;2023-01-19T06:45:54;60.70;;;28.90;;
75246;SDS011;63844;50.042;19.224;2023-01-19T06:48:21;64.60;;;29.60;;
75246;SDS011;63844;50.042;19.224;2023-01-19T06:50:48;59.20;;;28.30;;
75246;SDS011;63844;50.042;19.224;2023-01-19T06:53:16;64.70;;;30.10;;
75246;SDS011;63844;50.042;19.224;2023-01-19T06:55:45;60.10;;;27.80;;
75246;SDS011;63844;50.042;19.224;2023-01-19T06:58:11;56.30;;;26.70;;
75246;SDS011;63844;50.042;19.224;2023-01-19T07:03:05;48.00;;;22.80;;
75246;SDS011;63844;50.042;19.224;2023-01-19T07:10:17;28.30;;;13.10;;
75246;SDS011;63844;50.042;19.224;2023-01-19T07:12:43;35.10;;;17.20;;
75246;SDS011;63844;50.042;19.224;2023-01-19T07:15:16;41.90;;;18.30;;
75246;SDS011;63844;50.042;19.224;2023-01-19T07:17:44;28.70;;;13.70;;
75246;SDS011;63844;50.042;19.224;2023-01-19T07:20:12;30.10;;;14.40;;
75246;SDS011;63844;50.042;19.224;2023-01-19T07:22:40;41.60;;;19.10;;
75246;SDS011;63844;50.042;19.224;2023-01-19T07:25:08;26.50;;;13.00;;
75246;SDS011;63844;50.042;19.224;2023-01-19T07:27:35;29.50;;;13.70;;
75246;SDS011;63844;50.042;19.224;2023-01-19T07:30:01;27.80;;;13.00;;
75246;SDS011;63844;50.042;19.224;2023-01-19T07:32:29;31.50;;;14.20;;
75246;SDS011;63844;50.042;19.224;2023-01-19T07:34:56;21.20;;;9.80;;
75246;SDS011;63844;50.042;19.224;2023-01-19T07:37:22;33.10;;;15.90;;
75246;SDS011;63844;50.042;19.224;2023-01-19T07:39:49;33.40;;;15.20;;
75246;SDS011;63844;50.042;19.224;2023-01-19T07:42:15;34.80;;;16.70;;
75246;SDS011;63844;50.042;19.224;2023-01-19T07:44:42;21.90;;;10.20;;
75246;SDS011;63844;50.042;19.224;2023-01-19T07:47:08;28.20;;;12.20;;
75246;SDS011;63844;50.042;19.224;2023-01-19T07:49:38;40.90;;;18.50;;
75246;SDS011;63844;50.042;19.224;2023-01-19T07:52:04;38.80;;;18.90;;
75246;SDS011;63844;50.042;19.224;2023-01-19T07:54:31;40.50;;;18.30;;
75246;SDS011;63844;50.042;19.224;2023-01-19T07:56:58;31.90;;;12.70;;
75246;SDS011;63844;50.042;19.224;2023-01-19T07:59:26;42.40;;;18.00;;
75246;SDS011;63844;50.042;19.224;2023-01-19T08:01:55;41.20;;;18.20;;
75246;SDS011;63844;50.042;19.224;2023-01-19T08:04:25;43.70;;;20.00;;
75246;SDS011;63844;50.042;19.224;2023-01-19T08:06:52;50.00;;;20.50;;
75246;SDS011;63844;50.042;19.224;2023-01-19T08:09:20;38.10;;;16.60;;
75246;SDS011;63844;50.042;19.224;2023-01-19T08:11:46;43.40;;;18.50;;
75246;SDS011;63844;50.042;19.224;2023-01-19T08:14:13;45.10;;;19.20;;
75246;SDS011;63844;50.042;19.224;2023-01-19T08:16:39;58.20;;;25.60;;
75246;SDS011;63844;50.042;19.224;2023-01-19T08:19:06;39.20;;;18.40;;
75246;SDS011;63844;50.042;19.224;2023-01-19T08:21:32;55.80;;;27.40;;
75246;SDS011;63844;50.042;19.224;2023-01-19T08:24:01;54.70;;;27.30;;
75246;SDS011;63844;50.042;19.224;2023-01-19T08:26:28;58.20;;;26.50;;
75246;SDS011;63844;50.042;19.224;2023-01-19T08:28:57;63.30;;;28.30;;
75246;SDS011;63844;50.042;19.224;2023-01-19T08:31:27;49.90;;;23.00;;
75246;SDS011;63844;50.042;19.224;2023-01-19T08:36:21;47.30;;;21.40;;
75246;SDS011;63844;50.042;19.224;2023-01-19T08:38:49;56.60;;;24.60;;
75246;SDS011;63844;50.042;19.224;2023-01-19T08:41:16;56.50;;;25.70;;
75246;SDS011;63844;50.042;19.224;2023-01-19T08:43:42;52.30;;;21.80;;
75246;SDS011;63844;50.042;19.224;2023-01-19T08:46:12;67.60;;;29.20;;
75246;SDS011;63844;50.042;19.224;2023-01-19T08:48:46;62.20;;;27.70;;
75246;SDS011;63844;50.042;19.224;2023-01-19T08:51:15;43.30;;;18.70;;
75246;SDS011;63844;50.042;19.224;2023-01-19T08:53:42;62.30;;;27.70;;
75246;SDS011;63844;50.042;19.224;2023-01-19T08:56:09;55.30;;;23.30;;
75246;SDS011;63844;50.042;19.224;2023-01-19T08:58:39;57.20;;;25.70;;
75246;SDS011;63844;50.042;19.224;2023-01-19T09:01:07;62.60;;;26.60;;
75246;SDS011;63844;50.042;19.224;2023-01-19T09:03:35;61.70;;;26.20;;
75246;SDS011;63844;50.042;19.224;2023-01-19T09:06:05;63.10;;;25.80;;
75246;SDS011;63844;50.042;19.224;2023-01-19T09:08:33;63.40;;;24.50;;
75246;SDS011;63844;50.042;19.224;2023-01-19T09:10:59;57.40;;;24.20;;
75246;SDS011;63844;50.042;19.224;2023-01-19T09:13:26;54.90;;;25.70;;
75246;SDS011;63844;50.042;19.224;2023-01-19T09:15:53;57.70;;;23.80;;
75246;SDS011;63844;50.042;19.224;2023-01-19T09:18:20;84.30;;;32.70;;
75246;SDS011;63844;50.042;19.224;2023-01-19T09:20:48;68.30;;;28.30;;
75246;SDS011;63844;50.042;19.224;2023-01-19T09:23:16;62.10;;;24.50;;
75246;SDS011;63844;50.042;19.224;2023-01-19T09:25:46;57.30;;;24.20;;
75246;SDS011;63844;50.042;19.224;2023-01-19T09:28:13;48.90;;;22.20;;
75246;SDS011;63844;50.042;19.224;2023-01-19T09:30:41;56.80;;;24.00;;
75246;SDS011;63844;50.042;19.224;2023-01-19T09:33:11;55.00;;;25.30;;
75246;SDS011;63844;50.042;19.224;2023-01-19T09:35:40;52.60;;;25.70;;
75246;SDS011;63844;50.042;19.224;2023-01-19T09:38:07;77.30;;;30.20;;
75246;SDS011;63844;50.042;19.224;2023-01-19T09:40:43;60.20;;;27.20;;
75246;SDS011;63844;50.042;19.224;2023-01-19T09:45:47;41.60;;;18.10;;
75246;SDS011;63844;50.042;19.224;2023-01-19T09:51:09;63.70;;;26.90;;
75246;SDS011;63844;50.042;19.224;2023-01-19T09:53:44;51.80;;;21.00;;
75246;SDS011;63844;50.042;19.224;2023-01-19T09:56:17;51.60;;;21.00;;
75246;SDS011;63844;50.042;19.224;2023-01-19T09:58:46;64.90;;;24.70;;
75246;SDS011;63844;50.042;19.224;2023-01-19T10:01:19;60.60;;;22.80;;
75246;SDS011;63844;50.042;19.224;2023-01-19T10:03:48;65.40;;;27.10;;
75246;SDS011;63844;50.042;19.224;2023-01-19T10:06:23;63.40;;;25.90;;
75246;SDS011;63844;50.042;19.224;2023-01-19T10:09:00;69.40;;;26.90;;
75246;SDS011;63844;50.042;19.224;2023-01-19T10:11:36;66.00;;;27.30;;
75246;SDS011;63844;50.042;19.224;2023-01-19T10:14:28;60.00;;;25.50;;
75246;SDS011;63844;50.042;19.224;2023-01-19T10:17:05;65.70;;;26.50;;
75246;SDS011;63844;50.042;19.224;2023-01-19T10:19:46;58.30;;;24.80;;
75246;SDS011;63844;50.042;19.224;2023-01-19T10:22:24;51.50;;;21.90;;
75246;SDS011;63844;50.042;19.224;2023-01-19T10:24:54;68.60;;;28.00;;
75246;SDS011;63844;50.042;19.224;2023-01-19T10:27:31;64.90;;;25.00;;
75246;SDS011;63844;50.042;19.224;2023-01-19T10:30:00;70.20;;;30.20;;
75246;SDS011;63844;50.042;19.224;2023-01-19T10:32:28;67.70;;;27.70;;
75246;SDS011;63844;50.042;19.224;2023-01-19T10:34:59;78.40;;;31.50;;
75246;SDS011;63844;50.042;19.224;2023-01-19T10:39:53;70.10;;;27.50;;
75246;SDS011;63844;50.042;19.224;2023-01-19T10:42:22;69.90;;;26.50;;
75246;SDS011;63844;50.042;19.224;2023-01-19T10:44:51;60.80;;;26.40;;
75246;SDS011;63844;50.042;19.224;2023-01-19T10:47:18;43.40;;;18.80;;
75246;SDS011;63844;50.042;19.224;2023-01-19T10:49:46;57.70;;;24.90;;
75246;SDS011;63844;50.042;19.224;2023-01-19T10:52:30;56.40;;;25.80;;
75246;SDS011;63844;50.042;19.224;2023-01-19T10:55:01;56.00;;;25.40;;
75246;SDS011;63844;50.042;19.224;2023-01-19T10:57:31;55.70;;;24.50;;
75246;SDS011;63844;50.042;19.224;2023-01-19T11:00:03;54.00;;;21.90;;
75246;SDS011;63844;50.042;19.224;2023-01-19T11:02:31;62.50;;;24.00;;
75246;SDS011;63844;50.042;19.224;2023-01-19T11:04:59;50.50;;;22.60;;
75246;SDS011;63844;50.042;19.224;2023-01-19T11:07:46;39.00;;;16.80;;
75246;SDS011;63844;50.042;19.224;2023-01-19T11:12:54;51.50;;;20.70;;
75246;SDS011;63844;50.042;19.224;2023-01-19T11:15:24;62.60;;;23.90;;
75246;SDS011;63844;50.042;19.224;2023-01-19T11:17:55;81.10;;;27.90;;
75246;SDS011;63844;50.042;19.224;2023-01-19T11:20:24;64.50;;;23.20;;
75246;SDS011;63844;50.042;19.224;2023-01-19T11:23:04;91.40;;;31.10;;
75246;SDS011;63844;50.042;19.224;2023-01-19T11:25:33;78.00;;;23.30;;
75246;SDS011;63844;50.042;19.224;2023-01-19T11:28:01;60.70;;;19.90;;
75246;SDS011;63844;50.042;19.224;2023-01-19T11:30:28;64.70;;;23.20;;
75246;SDS011;63844;50.042;19.224;2023-01-19T11:32:56;69.60;;;24.90;;
75246;SDS011;63844;50.042;19.224;2023-01-19T11:35:30;63.70;;;24.00;;
75246;SDS011;63844;50.042;19.224;2023-01-19T11:38:05;26.10;;;11.20;;
75246;SDS011;63844;50.042;19.224;2023-01-19T11:40:38;56.80;;;21.80;;
75246;SDS011;63844;50.042;19.224;2023-01-19T11:43:10;41.50;;;14.30;;
75246;SDS011;63844;50.042;19.224;2023-01-19T11:45:38;66.40;;;22.80;;
75246;SDS011;63844;50.042;19.224;2023-01-19T11:48:05;59.50;;;20.10;;
75246;SDS011;63844;50.042;19.224;2023-01-19T11:50:38;83.20;;;27.40;;
75246;SDS011;63844;50.042;19.224;2023-01-19T11:58:26;61.00;;;20.10;;
75246;SDS011;63844;50.042;19.224;2023-01-19T12:03:45;49.40;;;16.90;;
75246;SDS011;63844;50.042;19.224;2023-01-19T12:06:24;47.30;;;17.80;;
75246;SDS011;63844;50.042;19.224;2023-01-19T12:11:30;56.80;;;22.30;;
75246;SDS011;63844;50.042;19.224;2023-01-19T12:13:59;47.40;;;20.30;;
75246;SDS011;63844;50.042;19.224;2023-01-19T12:16:28;51.80;;;21.20;;
75246;SDS011;63844;50.042;19.224;2023-01-19T12:19:05;51.20;;;19.20;;
75246;SDS011;63844;50.042;19.224;2023-01-19T12:21:40;50.30;;;19.00;;
75246;SDS011;63844;50.042;19.224;2023-01-19T12:26:55;53.10;;;20.70;;
75246;SDS011;63844;50.042;19.224;2023-01-19T12:29:28;48.90;;;19.60;;
75246;SDS011;63844;50.042;19.224;2023-01-19T12:34:49;37.80;;;15.40;;
75246;SDS011;63844;50.042;19.224;2023-01-19T12:42:45;42.70;;;16.40;;
75246;SDS011;63844;50.042;19.224;2023-01-19T12:45:17;32.80;;;13.30;;
75246;SDS011;63844;50.042;19.224;2023-01-19T12:47:49;37.10;;;12.60;;
75246;SDS011;63844;50.042;19.224;2023-01-19T12:50:17;38.80;;;15.80;;
75246;SDS011;63844;50.042;19.224;2023-01-19T12:52:50;41.80;;;15.80;;
75246;SDS011;63844;50.042;19.224;2023-01-19T12:58:21;41.20;;;16.40;;
75246;SDS011;63844;50.042;19.224;2023-01-19T13:00:50;31.80;;;14.30;;
75246;SDS011;63844;50.042;19.224;2023-01-19T13:09:32;42.20;;;16.50;;
75246;SDS011;63844;50.042;19.224;2023-01-19T13:12:10;38.70;;;15.80;;
75246;SDS011;63844;50.042;19.224;2023-01-19T13:17:20;39.70;;;15.60;;
75246;SDS011;63844;50.042;19.224;2023-01-19T13:19:52;45.00;;;17.60;;
75246;SDS011;63844;50.042;19.224;2023-01-19T13:22:47;37.30;;;15.10;;
75246;SDS011;63844;50.042;19.224;2023-01-19T13:25:36;46.10;;;17.70;;
75246;SDS011;63844;50.042;19.224;2023-01-19T13:28:06;37.70;;;15.10;;
75246;SDS011;63844;50.042;19.224;2023-01-19T13:30:35;23.80;;;9.40;;
75246;SDS011;63844;50.042;19.224;2023-01-19T13:33:08;35.80;;;13.20;;
75246;SDS011;63844;50.042;19.224;2023-01-19T13:35:50;38.00;;;14.20;;
75246;SDS011;63844;50.042;19.224;2023-01-19T13:38:20;35.00;;;13.60;;
75246;SDS011;63844;50.042;19.224;2023-01-19T13:40:47;29.20;;;11.00;;
75246;SDS011;63844;50.042;19.224;2023-01-19T13:43:16;33.90;;;13.30;;
75246;SDS011;63844;50.042;19.224;2023-01-19T13:45:47;39.10;;;14.20;;
75246;SDS011;63844;50.042;19.224;2023-01-19T13:48:17;31.40;;;12.80;;
75246;SDS011;63844;50.042;19.224;2023-01-19T13:51:10;35.70;;;13.60;;
75246;SDS011;63844;50.042;19.224;2023-01-19T13:53:51;34.50;;;13.70;;
75246;SDS011;63844;50.042;19.224;2023-01-19T13:56:20;40.30;;;13.80;;
75246;SDS011;63844;50.042;19.224;2023-01-19T13:59:02;29.30;;;12.50;;
75246;SDS011;63844;50.042;19.224;2023-01-19T14:01:44;35.00;;;13.80;;
75246;SDS011;63844;50.042;19.224;2023-01-19T14:04:24;37.60;;;14.40;;
75246;SDS011;63844;50.042;19.224;2023-01-19T14:06:52;42.70;;;17.30;;
75246;SDS011;63844;50.042;19.224;2023-01-19T14:09:22;34.50;;;14.00;;
75246;SDS011;63844;50.042;19.224;2023-01-19T14:14:50;34.00;;;13.90;;
75246;SDS011;63844;50.042;19.224;2023-01-19T14:17:24;33.70;;;14.10;;
75246;SDS011;63844;50.042;19.224;2023-01-19T14:19:55;31.10;;;11.40;;
75246;SDS011;63844;50.042;19.224;2023-01-19T14:22:42;28.30;;;11.40;;
75246;SDS011;63844;50.042;19.224;2023-01-19T14:25:30;28.10;;;11.70;;
75246;SDS011;63844;50.042;19.224;2023-01-19T14:30:58;27.40;;;11.30;;
75246;SDS011;63844;50.042;19.224;2023-01-19T14:38:59;32.70;;;12.60;;
75246;SDS011;63844;50.042;19.224;2023-01-19T14:41:31;38.30;;;14.30;;
75246;SDS011;63844;50.042;19.224;2023-01-19T14:44:09;35.50;;;12.90;;
75246;SDS011;63844;50.042;19.224;2023-01-19T14:46:44;31.20;;;12.80;;
75246;SDS011;63844;50.042;19.224;2023-01-19T14:49:16;36.30;;;13.60;;
75246;SDS011;63844;50.042;19.224;2023-01-19T14:51:47;31.90;;;13.30;;
75246;SDS011;63844;50.042;19.224;2023-01-19T14:54:16;41.50;;;15.50;;
75246;SDS011;63844;50.042;19.224;2023-01-19T14:56:47;33.80;;;13.80;;
75246;SDS011;63844;50.042;19.224;2023-01-19T14:59:14;36.50;;;15.70;;
75246;SDS011;63844;50.042;19.224;2023-01-19T15:01:40;26.20;;;11.00;;
75246;SDS011;63844;50.042;19.224;2023-01-19T15:04:07;28.50;;;12.20;;
75246;SDS011;63844;50.042;19.224;2023-01-19T15:06:33;32.10;;;13.30;;
75246;SDS011;63844;50.042;19.224;2023-01-19T15:09:05;29.60;;;12.90;;
75246;SDS011;63844;50.042;19.224;2023-01-19T15:11:35;30.60;;;11.60;;
75246;SDS011;63844;50.042;19.224;2023-01-19T15:14:02;29.90;;;12.20;;
75246;SDS011;63844;50.042;19.224;2023-01-19T15:16:29;31.50;;;12.60;;
75246;SDS011;63844;50.042;19.224;2023-01-19T15:18:58;26.20;;;11.40;;
75246;SDS011;63844;50.042;19.224;2023-01-19T15:21:25;22.30;;;9.70;;
75246;SDS011;63844;50.042;19.224;2023-01-19T15:23:51;30.70;;;12.70;;
75246;SDS011;63844;50.042;19.224;2023-01-19T15:26:20;26.40;;;12.00;;
75246;SDS011;63844;50.042;19.224;2023-01-19T15:28:49;27.00;;;10.70;;
75246;SDS011;63844;50.042;19.224;2023-01-19T15:31:17;27.00;;;11.90;;
75246;SDS011;63844;50.042;19.224;2023-01-19T15:33:45;24.80;;;10.90;;
75246;SDS011;63844;50.042;19.224;2023-01-19T15:36:13;27.10;;;11.10;;
75246;SDS011;63844;50.042;19.224;2023-01-19T15:38:41;25.60;;;10.40;;
75246;SDS011;63844;50.042;19.224;2023-01-19T15:41:22;25.30;;;9.40;;
75246;SDS011;63844;50.042;19.224;2023-01-19T15:43:50;27.00;;;11.20;;
75246;SDS011;63844;50.042;19.224;2023-01-19T15:46:17;30.60;;;12.30;;
75246;SDS011;63844;50.042;19.224;2023-01-19T15:48:46;29.30;;;11.80;;
75246;SDS011;63844;50.042;19.224;2023-01-19T15:51:14;21.80;;;9.10;;